Time;durP1;ratioP1;P1;durP2;ratioP2;P2;SDS_P1;SDS_P2;PMS_P1;PMS_P2;Temp;Humidity;BMP_temperature;BMP_pressure;BME280_temperature;BME280_humidity;BME280_pressure;Samples;Min_cycle;Max_cycle;Signal;HPM_P1;HPM_P2
2022/07/30 00:01:27;;;;;;;0.10;0.10;;;16.60;99.90;;;;;;5061008;28;20032;-81
2022/07/30 00:03:52;;;;;;;0.20;0.20;;;16.60;99.90;;;;;;5048378;28;20044;-82
2022/07/30 00:06:18;;;;;;;0.20;0.20;;;16.50;99.90;;;;;;5059596;28;20083;-82
2022/07/30 00:08:44;;;;;;;0.10;0.10;;;16.50;99.90;;;;;;5067494;28;20049;-84
2022/07/30 00:11:10;;;;;;;0.20;0.20;;;16.50;99.90;;;;;;5053371;28;20045;-82
2022/07/30 00:13:39;;;;;;;0.20;0.20;;;16.50;99.90;;;;;;5058295;28;20624;-83
2022/07/30 00:16:04;;;;;;;0.10;0.10;;;16.40;99.90;;;;;;5070869;28;20125;-82
2022/07/30 00:18:30;;;;;;;0.20;0.20;;;16.40;99.90;;;;;;5067879;28;20041;-83
2022/07/30 00:20:56;;;;;;;0.10;0.10;;;16.40;99.90;;;;;;5050120;28;20049;-82
2022/07/30 00:23:21;;;;;;;0.10;0.10;;;16.40;99.90;;;;;;5066505;28;20045;-83
2022/07/30 00:25:47;;;;;;;0.20;0.20;;;16.40;99.90;;;;;;5063916;28;20078;-85
2022/07/30 00:28:12;;;;;;;0.10;0.10;;;16.40;99.90;;;;;;5057169;28;20056;-83
2022/07/30 00:30:41;;;;;;;0.17;0.17;;;16.30;99.90;;;;;;5056294;28;20054;-82
2022/07/30 00:33:06;;;;;;;0.20;0.20;;;16.30;99.90;;;;;;5086167;28;20067;-83
2022/07/30 00:35:32;;;;;;;0.10;0.10;;;16.30;99.90;;;;;;5070235;28;20033;-82
2022/07/30 00:37:58;;;;;;;0.10;0.10;;;16.30;99.90;;;;;;5059588;28;20045;-83
2022/07/30 00:40:23;;;;;;;0.20;0.20;;;16.30;99.90;;;;;;5056950;28;20033;-82
2022/07/30 00:42:49;;;;;;;0.10;0.10;;;16.30;99.90;;;;;;5069789;28;20068;-82
2022/07/30 00:45:16;;;;;;;0.20;0.20;;;16.30;99.90;;;;;;5052926;28;20037;-82
2022/07/30 00:47:42;;;;;;;0.20;0.20;;;16.30;99.90;;;;;;5051109;28;20083;-82
2022/07/30 00:50:09;;;;;;;0.15;0.15;;;16.20;99.90;;;;;;5053873;28;20051;-82
2022/07/30 00:52:39;;;;;;;0.10;0.10;;;16.20;99.90;;;;;;5068509;28;20087;-83
2022/07/30 00:55:07;;;;;;;0.20;0.20;;;16.20;99.90;;;;;;5063536;28;20045;-83
2022/07/30 00:57:33;;;;;;;0.17;0.17;;;16.10;99.90;;;;;;5067692;28;20044;-82
2022/07/30 00:59:59;;;;;;;0.10;0.10;;;16.10;99.90;;;;;;5056190;28;20052;-82
2022/07/30 01:02:24;;;;;;;0.20;0.20;;;16.10;99.90;;;;;;5063614;28;20416;-82
2022/07/30 01:04:50;;;;;;;0.15;0.15;;;16.10;99.90;;;;;;5064853;28;20044;-83
2022/07/30 01:07:16;;;;;;;0.20;0.20;;;16.20;99.90;;;;;;5048882;28;20040;-82
2022/07/30 01:09:41;;;;;;;0.20;0.20;;;16.00;99.90;;;;;;5061457;28;20032;-81
2022/07/30 01:12:08;;;;;;;0.10;0.10;;;16.00;99.90;;;;;;5065421;28;20067;-82
2022/07/30 01:14:34;;;;;;;0.20;0.20;;;16.00;99.90;;;;;;5049879;28;20041;-81
2022/07/30 01:17:01;;;;;;;0.20;0.20;;;16.00;99.90;;;;;;5053771;28;20606;-82
2022/07/30 01:22:25;;;;;;;0.17;0.17;;;16.00;99.90;;;;;;5063746;28;20053;-82
2022/07/30 01:25:12;;;;;;;0.20;0.20;;;15.90;99.90;;;;;;5060668;28;20055;-82
2022/07/30 01:28:12;;;;;;;0.10;0.10;;;15.90;99.90;;;;;;5058400;28;20508;-82
2022/07/30 01:30:43;;;;;;;0.10;0.10;;;15.80;99.90;;;;;;5059231;28;20102;-82
2022/07/30 01:33:13;;;;;;;0.20;0.20;;;15.80;99.90;;;;;;5059721;28;20079;-82
2022/07/30 01:35:40;;;;;;;0.20;0.20;;;15.80;99.90;;;;;;5069609;28;20389;-82
2022/07/30 01:38:15;;;;;;;0.20;0.20;;;15.70;99.90;;;;;;5067307;28;20049;-82
2022/07/30 01:40:43;;;;;;;0.20;0.20;;;15.70;99.90;;;;;;5058829;28;20051;-82
2022/07/30 01:43:09;;;;;;;0.10;0.10;;;15.70;99.90;;;;;;5053441;28;20136;-82
2022/07/30 01:45:36;;;;;;;0.10;0.10;;;15.70;99.90;;;;;;5057661;28;20047;-82
2022/07/30 01:48:07;;;;;;;0.10;0.10;;;15.60;99.90;;;;;;5050776;28;20091;-82
2022/07/30 01:50:34;;;;;;;0.17;0.17;;;15.60;99.90;;;;;;5055287;28;21822;-82
2022/07/30 01:53:04;;;;;;;0.10;0.10;;;15.60;99.90;;;;;;5054417;28;20055;-82
2022/07/30 01:55:39;;;;;;;0.10;0.10;;;15.60;99.90;;;;;;5059043;28;20072;-82
2022/07/30 01:58:06;;;;;;;0.20;0.20;;;15.60;99.90;;;;;;5068834;28;20045;-82
2022/07/30 02:00:36;;;;;;;0.10;0.10;;;15.60;99.90;;;;;;5056322;28;20484;-82
2022/07/30 02:03:03;;;;;;;0.30;0.30;;;15.70;99.90;;;;;;5063071;28;20114;-82
2022/07/30 02:05:31;;;;;;;0.20;0.20;;;15.80;99.90;;;;;;5066648;28;20302;-82
2022/07/30 02:08:09;;;;;;;0.10;0.10;;;15.60;99.90;;;;;;5064655;28;20041;-82
2022/07/30 02:10:41;;;;;;;0.20;0.20;;;15.60;99.90;;;;;;5068359;28;20047;-81
2022/07/30 02:13:09;;;;;;;0.10;0.10;;;15.60;99.90;;;;;;5062469;28;20534;-82
2022/07/30 02:15:47;;;;;;;0.20;0.20;;;15.50;99.90;;;;;;5067053;28;20033;-83
2022/07/30 02:18:29;;;;;;;0.15;0.15;;;15.60;99.90;;;;;;5057599;28;20051;-82
2022/07/30 02:21:07;;;;;;;0.20;0.20;;;15.50;99.90;;;;;;5071002;28;20106;-83
2022/07/30 02:23:38;;;;;;;0.20;0.20;;;15.50;99.90;;;;;;5071779;28;20036;-82
2022/07/30 02:26:07;;;;;;;0.20;0.20;;;15.50;99.90;;;;;;5067554;28;20044;-82
2022/07/30 02:28:37;;;;;;;0.10;0.10;;;15.50;99.90;;;;;;5078764;28;20176;-82
2022/07/30 02:31:06;;;;;;;0.20;0.20;;;15.50;99.90;;;;;;5073990;28;20496;-83
2022/07/30 02:33:37;;;;;;;0.10;0.10;;;15.60;99.90;;;;;;5058185;28;20303;-82
2022/07/30 02:36:04;;;;;;;0.20;0.20;;;15.50;99.90;;;;;;5051573;28;20454;-83
2022/07/30 02:38:31;;;;;;;0.10;0.10;;;15.50;99.90;;;;;;5068116;28;20075;-83
2022/07/30 02:40:59;;;;;;;0.13;0.13;;;15.50;99.90;;;;;;5065725;28;20048;-83
2022/07/30 02:43:25;;;;;;;0.20;0.20;;;15.50;99.90;;;;;;5069504;28;20040;-83
2022/07/30 02:45:52;;;;;;;0.10;0.10;;;15.40;99.90;;;;;;5058896;28;20051;-83
2022/07/30 02:48:22;;;;;;;0.10;0.10;;;15.40;99.90;;;;;;5069262;28;20120;-83
2022/07/30 02:50:50;;;;;;;0.15;0.15;;;15.40;99.90;;;;;;5061824;28;20084;-83
2022/07/30 02:53:19;;;;;;;0.10;0.10;;;15.40;99.90;;;;;;5057921;28;20049;-83
2022/07/30 02:55:46;;;;;;;0.20;0.20;;;15.30;99.90;;;;;;5059290;28;20052;-83
2022/07/30 02:58:18;;;;;;;0.20;0.20;;;15.30;99.90;;;;;;5061019;28;20453;-83
2022/07/30 03:00:49;;;;;;;0.20;0.20;;;15.30;99.90;;;;;;5060557;28;20669;-84
2022/07/30 03:03:16;;;;;;;0.20;0.20;;;15.30;99.90;;;;;;5060765;28;20048;-83
2022/07/30 03:05:43;;;;;;;0.20;0.20;;;15.30;99.90;;;;;;5063119;28;20049;-83
2022/07/30 03:08:09;;;;;;;0.10;0.10;;;15.20;99.90;;;;;;5065279;28;20174;-83
2022/07/30 03:10:36;;;;;;;0.20;0.20;;;15.30;99.90;;;;;;5052595;28;20112;-83
2022/07/30 03:13:04;;;;;;;0.20;0.20;;;15.30;99.90;;;;;;5050876;28;20405;-82
2022/07/30 03:15:34;;;;;;;0.20;0.20;;;15.30;99.90;;;;;;5051740;28;20044;-82
2022/07/30 03:18:04;;;;;;;0.20;0.20;;;15.30;99.90;;;;;;5056182;28;20056;-83
2022/07/30 03:20:31;;;;;;;0.10;0.10;;;15.40;99.90;;;;;;5066001;28;20052;-83
2022/07/30 03:23:01;;;;;;;0.20;0.20;;;15.30;99.90;;;;;;5066727;28;20076;-83
2022/07/30 03:25:28;;;;;;;0.20;0.20;;;15.30;99.90;;;;;;5066774;28;20131;-82
2022/07/30 03:28:00;;;;;;;0.20;0.20;;;15.20;99.90;;;;;;5054593;28;20044;-81
2022/07/30 03:30:26;;;;;;;0.20;0.20;;;15.10;99.90;;;;;;5068811;28;20419;-82
2022/07/30 03:32:54;;;;;;;0.20;0.20;;;15.10;99.90;;;;;;5067329;28;20049;-83
2022/07/30 03:35:23;;;;;;;0.20;0.20;;;15.10;99.90;;;;;;5087167;28;20090;-83
2022/07/30 03:37:50;;;;;;;0.15;0.15;;;15.10;99.90;;;;;;5081276;28;20951;-83
2022/07/30 03:40:17;;;;;;;0.20;0.20;;;15.10;99.90;;;;;;5068045;28;20043;-82
2022/07/30 03:42:44;;;;;;;0.20;0.20;;;15.10;99.90;;;;;;5053309;28;20050;-83
2022/07/30 03:45:12;;;;;;;0.10;0.10;;;15.10;99.90;;;;;;5050328;28;20052;-83
2022/07/30 03:47:40;;;;;;;0.20;0.20;;;15.10;99.90;;;;;;5066966;28;20062;-83
2022/07/30 03:50:07;;;;;;;0.20;0.20;;;15.10;99.90;;;;;;5067454;28;20041;-83
2022/07/30 03:52:40;;;;;;;0.20;0.20;;;15.10;99.90;;;;;;5061558;28;20051;-85
2022/07/30 03:55:08;;;;;;;0.20;0.20;;;15.00;99.90;;;;;;5062922;28;20093;-83
2022/07/30 03:57:35;;;;;;;0.17;0.17;;;15.00;99.90;;;;;;5065728;28;20583;-83
2022/07/30 04:00:01;;;;;;;0.10;0.10;;;15.00;99.90;;;;;;5065745;28;20052;-83
2022/07/30 04:02:30;;;;;;;0.15;0.15;;;15.00;99.90;;;;;;5061009;28;20036;-83
2022/07/30 04:04:55;;;;;;;0.10;0.10;;;15.00;99.90;;;;;;5068107;28;20048;-83
2022/07/30 04:07:22;;;;;;;0.20;0.20;;;15.10;99.90;;;;;;5061391;28;20053;-83
2022/07/30 04:09:47;;;;;;;0.17;0.17;;;15.20;99.90;;;;;;5049803;28;20036;-82
2022/07/30 04:12:13;;;;;;;0.10;0.10;;;15.10;99.90;;;;;;5047618;28;20053;-83
2022/07/30 04:14:43;;;;;;;0.20;0.20;;;15.10;99.90;;;;;;5057067;28;20037;-83
2022/07/30 04:17:18;;;;;;;0.20;0.20;;;15.20;99.90;;;;;;5059432;28;20101;-83
2022/07/30 04:19:52;;;;;;;0.13;0.13;;;15.20;99.90;;;;;;5067719;28;20048;-82
2022/07/30 04:22:25;;;;;;;0.10;0.10;;;15.20;99.90;;;;;;5070070;28;20051;-83
2022/07/30 04:24:52;;;;;;;0.10;0.10;;;15.20;99.90;;;;;;5072670;28;20040;-82
2022/07/30 04:27:19;;;;;;;0.10;0.10;;;15.20;99.90;;;;;;5053889;28;20055;-83
2022/07/30 04:29:45;;;;;;;0.20;0.20;;;15.30;99.90;;;;;;5067224;28;20071;-82
2022/07/30 04:32:11;;;;;;;0.20;0.20;;;15.30;99.90;;;;;;5066904;28;20123;-82
2022/07/30 04:34:47;;;;;;;0.10;0.10;;;15.30;99.90;;;;;;5068594;28;20554;-83
2022/07/30 04:37:15;;;;;;;0.20;0.20;;;15.30;99.90;;;;;;5068971;28;20060;-82
2022/07/30 04:39:44;;;;;;;0.20;0.20;;;15.30;99.90;;;;;;5048509;28;20488;-83
2022/07/30 04:42:10;;;;;;;0.20;0.20;;;15.30;99.90;;;;;;5054562;28;20090;-82
2022/07/30 04:44:37;;;;;;;0.20;0.20;;;15.30;99.90;;;;;;5065562;28;20098;-82
2022/07/30 04:47:18;;;;;;;0.10;0.10;;;15.30;99.90;;;;;;5063938;28;20044;-82
2022/07/30 04:49:46;;;;;;;0.10;0.10;;;15.40;99.90;;;;;;5067715;28;20131;-82
2022/07/30 04:52:13;;;;;;;0.20;0.20;;;15.40;99.90;;;;;;5062208;28;20485;-82
2022/07/30 04:54:50;;;;;;;0.20;0.20;;;15.40;99.90;;;;;;5065425;28;20048;-82
2022/07/30 04:57:16;;;;;;;0.20;0.20;;;15.50;99.90;;;;;;5053280;28;20515;-82
2022/07/30 04:59:43;;;;;;;0.20;0.20;;;15.50;99.90;;;;;;5066768;28;20430;-81
2022/07/30 05:02:14;;;;;;;0.20;0.20;;;15.50;99.90;;;;;;5064752;28;20136;-82
2022/07/30 05:04:43;;;;;;;0.20;0.20;;;15.40;99.90;;;;;;5063763;28;20105;-82
2022/07/30 05:07:13;;;;;;;0.10;0.10;;;15.60;99.90;;;;;;5083215;28;20040;-81
2022/07/30 05:09:39;;;;;;;0.20;0.20;;;15.70;99.90;;;;;;5067228;28;20045;-81
2022/07/30 05:12:05;;;;;;;0.10;0.10;;;15.60;99.90;;;;;;5053123;28;20094;-83
2022/07/30 05:14:31;;;;;;;0.10;0.10;;;15.70;99.90;;;;;;5051974;28;20040;-82
2022/07/30 05:17:17;;;;;;;0.20;0.20;;;15.70;99.90;;;;;;5053266;28;20040;-82
2022/07/30 05:19:42;;;;;;;0.20;0.20;;;15.80;99.90;;;;;;5061180;28;20147;-83
2022/07/30 05:22:08;;;;;;;0.15;0.15;;;15.90;99.90;;;;;;5057492;28;20045;-82
2022/07/30 05:24:36;;;;;;;0.15;0.15;;;16.00;99.90;;;;;;5065753;28;20068;-82
2022/07/30 05:27:02;;;;;;;0.10;0.10;;;15.90;99.90;;;;;;5082318;28;20049;-84
2022/07/30 05:29:28;;;;;;;0.10;0.10;;;16.00;99.90;;;;;;5073135;28;20029;-82
2022/07/30 05:31:53;;;;;;;0.15;0.15;;;16.00;99.90;;;;;;5060999;28;20048;-82
2022/07/30 05:34:19;;;;;;;0.20;0.20;;;16.10;99.90;;;;;;5054281;28;20181;-83
2022/07/30 05:36:44;;;;;;;0.20;0.20;;;16.20;99.90;;;;;;5059781;28;20116;-82
2022/07/30 05:39:10;;;;;;;0.10;0.10;;;16.30;99.90;;;;;;5069831;28;20048;-82
2022/07/30 05:41:36;;;;;;;0.20;0.20;;;16.40;99.90;;;;;;5066611;28;20412;-82
2022/07/30 05:44:02;;;;;;;0.20;0.20;;;16.20;99.90;;;;;;5065450;28;20191;-82
2022/07/30 05:46:28;;;;;;;0.20;0.20;;;16.30;99.90;;;;;;5071383;28;20043;-82
2022/07/30 05:48:53;;;;;;;0.10;0.10;;;16.40;99.90;;;;;;5069303;28;20070;-82
2022/07/30 05:51:20;;;;;;;0.20;0.20;;;16.30;99.90;;;;;;5072577;28;20040;-82
2022/07/30 05:53:46;;;;;;;0.20;0.20;;;16.60;99.90;;;;;;5066999;28;20123;-82
2022/07/30 05:56:12;;;;;;;0.10;0.10;;;16.50;99.90;;;;;;5071019;28;20501;-83
2022/07/30 05:58:37;;;;;;;0.20;0.20;;;16.50;99.90;;;;;;5070253;28;20065;-82
2022/07/30 06:01:03;;;;;;;0.15;0.15;;;16.60;99.90;;;;;;5063031;28;20404;-81
2022/07/30 06:03:29;;;;;;;0.20;0.20;;;16.60;99.90;;;;;;5055514;28;20049;-82
2022/07/30 06:05:54;;;;;;;0.10;0.10;;;17.20;99.90;;;;;;5056183;28;20392;-82
2022/07/30 06:08:20;;;;;;;0.20;0.20;;;16.80;99.90;;;;;;5056481;28;20048;-82
2022/07/30 06:10:45;;;;;;;0.20;0.20;;;16.80;99.90;;;;;;5066812;28;20040;-83
2022/07/30 06:13:11;;;;;;;0.20;0.20;;;16.90;99.90;;;;;;5054636;28;20080;-82
2022/07/30 06:15:37;;;;;;;0.20;0.20;;;16.90;99.90;;;;;;5064852;28;20079;-82
2022/07/30 06:18:02;;;;;;;0.20;0.20;;;17.10;99.90;;;;;;5057661;28;20497;-83
2022/07/30 06:20:28;;;;;;;0.10;0.10;;;17.20;99.90;;;;;;5065458;28;20041;-83
2022/07/30 06:22:54;;;;;;;0.17;0.17;;;17.20;99.90;;;;;;5060719;28;20048;-82
2022/07/30 06:25:19;;;;;;;0.20;0.20;;;17.30;99.90;;;;;;5063268;28;20079;-81
2022/07/30 06:27:45;;;;;;;0.10;0.10;;;17.40;99.90;;;;;;5061591;28;20084;-81
2022/07/30 06:30:11;;;;;;;0.10;0.10;;;17.40;99.90;;;;;;5070116;28;20094;-81
2022/07/30 06:32:37;;;;;;;0.20;0.20;;;17.50;99.90;;;;;;5061319;28;20048;-83
2022/07/30 06:35:03;;;;;;;0.20;0.20;;;17.60;99.90;;;;;;5091357;28;20101;-82
2022/07/30 06:37:29;;;;;;;0.20;0.20;;;17.90;99.90;;;;;;5073668;28;20045;-82
2022/07/30 06:39:55;;;;;;;0.20;0.20;;;17.80;99.90;;;;;;5055667;28;20040;-81
2022/07/30 06:42:20;;;;;;;0.20;0.20;;;17.70;99.90;;;;;;5069730;28;20068;-82
2022/07/30 06:44:46;;;;;;;0.10;0.10;;;17.80;99.90;;;;;;5083744;28;20036;-82
2022/07/30 06:47:12;;;;;;;0.20;0.20;;;17.80;99.90;;;;;;5099336;28;20192;-81
2022/07/30 06:49:38;;;;;;;0.15;0.15;;;17.90;99.90;;;;;;5065877;28;20044;-81
2022/07/30 06:52:04;;;;;;;0.20;0.20;;;17.80;99.90;;;;;;5059530;28;20128;-81
2022/07/30 06:54:30;;;;;;;0.20;0.20;;;18.00;99.90;;;;;;5056262;28;20083;-82
2022/07/30 06:56:56;;;;;;;0.20;0.20;;;18.10;99.90;;;;;;5065616;28;20037;-82
2022/07/30 06:59:22;;;;;;;0.13;0.13;;;18.10;99.90;;;;;;5060226;28;20052;-82
2022/07/30 07:01:48;;;;;;;0.20;0.20;;;18.10;99.90;;;;;;5067518;28;20044;-81
2022/07/30 07:04:14;;;;;;;0.20;0.20;;;18.20;99.90;;;;;;5071656;28;20041;-82
2022/07/30 07:06:40;;;;;;;0.20;0.20;;;18.30;99.90;;;;;;5077643;28;20083;-82
2022/07/30 07:09:06;;;;;;;0.10;0.10;;;18.30;99.90;;;;;;5050502;28;20420;-81
2022/07/30 07:11:31;;;;;;;0.20;0.20;;;18.30;99.90;;;;;;5061527;28;20041;-81
2022/07/30 07:13:57;;;;;;;0.20;0.20;;;18.40;99.90;;;;;;5058864;28;20053;-81
2022/07/30 07:16:25;;;;;;;0.13;0.13;;;18.50;99.90;;;;;;5069151;28;20068;-81
2022/07/30 07:18:52;;;;;;;0.20;0.20;;;18.50;99.90;;;;;;5068296;28;20136;-83
2022/07/30 07:21:18;;;;;;;0.10;0.10;;;18.60;99.90;;;;;;5066583;28;20040;-81
2022/07/30 07:23:43;;;;;;;0.10;0.10;;;18.70;99.90;;;;;;5055292;28;20047;-82
2022/07/30 07:26:10;;;;;;;0.20;0.20;;;18.70;99.90;;;;;;5062969;28;20119;-81
2022/07/30 07:28:36;;;;;;;0.20;0.20;;;18.80;99.90;;;;;;5070119;28;20055;-79
2022/07/30 07:31:02;;;;;;;0.20;0.20;;;18.90;99.90;;;;;;5063770;28;20455;-80
2022/07/30 07:33:27;;;;;;;0.20;0.20;;;18.90;99.90;;;;;;5058686;28;20378;-81
2022/07/30 07:35:54;;;;;;;0.20;0.20;;;19.00;99.90;;;;;;5061617;28;20029;-82
2022/07/30 07:38:19;;;;;;;0.10;0.10;;;19.10;99.90;;;;;;5059746;28;20045;-80
2022/07/30 07:40:46;;;;;;;0.20;0.20;;;19.10;99.90;;;;;;5053657;28;20044;-79
2022/07/30 07:43:12;;;;;;;0.20;0.20;;;19.20;99.90;;;;;;5064546;28;20048;-80
2022/07/30 07:45:38;;;;;;;0.20;0.20;;;19.20;99.90;;;;;;5059133;28;20057;-81
2022/07/30 07:48:04;;;;;;;0.10;0.10;;;19.30;99.90;;;;;;5058845;28;20041;-81
2022/07/30 07:50:30;;;;;;;0.20;0.20;;;19.40;99.90;;;;;;5068603;28;20689;-81
2022/07/30 07:52:55;;;;;;;0.20;0.20;;;19.40;99.90;;;;;;5061131;28;20052;-80
2022/07/30 07:55:21;;;;;;;0.15;0.15;;;19.50;99.90;;;;;;5062131;28;20044;-80
2022/07/30 07:57:50;;;;;;;0.20;0.20;;;19.60;99.90;;;;;;5071351;28;20048;-81
2022/07/30 08:00:16;;;;;;;0.10;0.10;;;19.70;99.90;;;;;;5067661;28;20075;-81
2022/07/30 08:02:43;;;;;;;0.20;0.20;;;19.70;99.90;;;;;;5055943;28;20052;-80
2022/07/30 08:05:11;;;;;;;0.13;0.13;;;19.80;99.90;;;;;;5071592;28;20108;-82
2022/07/30 08:07:40;;;;;;;0.17;0.17;;;19.70;99.90;;;;;;5070005;28;20119;-83
2022/07/30 08:10:07;;;;;;;0.15;0.15;;;19.90;99.90;;;;;;5068592;28;20048;-84
2022/07/30 08:12:32;;;;;;;0.13;0.13;;;20.00;99.90;;;;;;5069799;28;20051;-81
2022/07/30 08:14:58;;;;;;;0.10;0.10;;;20.00;99.90;;;;;;5058777;28;20336;-82
2022/07/30 08:17:24;;;;;;;0.10;0.10;;;20.10;99.90;;;;;;5075589;28;20505;-83
2022/07/30 08:19:50;;;;;;;0.20;0.20;;;20.20;99.90;;;;;;5059161;28;20040;-83
2022/07/30 08:22:18;;;;;;;0.20;0.20;;;20.30;99.90;;;;;;5070735;28;20045;-83
2022/07/30 08:24:44;;;;;;;0.10;0.10;;;20.30;99.90;;;;;;5064451;28;20420;-82
2022/07/30 08:27:10;;;;;;;0.10;0.10;;;20.40;99.90;;;;;;5070391;28;20040;-84
2022/07/30 08:29:35;;;;;;;0.17;0.17;;;20.40;99.90;;;;;;5069985;28;20522;-83
2022/07/30 08:32:04;;;;;;;0.20;0.20;;;20.50;99.90;;;;;;5068290;28;20408;-83
2022/07/30 08:34:29;;;;;;;0.20;0.20;;;20.60;99.90;;;;;;5068257;28;20035;-83
2022/07/30 08:36:55;;;;;;;0.20;0.20;;;20.60;99.90;;;;;;5069774;28;20038;-84
2022/07/30 08:39:23;;;;;;;0.20;0.20;;;20.80;99.90;;;;;;5069948;28;20499;-82
2022/07/30 08:41:49;;;;;;;0.20;0.20;;;20.90;99.90;;;;;;5075775;28;20036;-85
2022/07/30 08:44:17;;;;;;;0.20;0.20;;;20.90;99.90;;;;;;5069877;28;20036;-84
2022/07/30 08:46:46;;;;;;;0.20;0.20;;;21.00;99.90;;;;;;5058741;28;20059;-84
2022/07/30 08:49:13;;;;;;;0.20;0.20;;;21.00;99.90;;;;;;5072198;28;20542;-85
2022/07/30 08:51:38;;;;;;;0.20;0.20;;;21.10;99.90;;;;;;5069272;28;20048;-83
2022/07/30 08:54:07;;;;;;;0.10;0.10;;;21.10;99.90;;;;;;5076080;28;20081;-84
2022/07/30 08:56:33;;;;;;;0.20;0.20;;;21.20;99.90;;;;;;5082617;28;20063;-84
2022/07/30 08:59:00;;;;;;;0.20;0.20;;;21.30;99.90;;;;;;5075350;28;20060;-82
2022/07/30 09:01:28;;;;;;;0.10;0.10;;;21.30;99.90;;;;;;5067994;28;20392;-81
2022/07/30 09:03:54;;;;;;;0.20;0.20;;;21.40;99.90;;;;;;5067262;28;20044;-82
2022/07/30 09:06:19;;;;;;;0.20;0.20;;;21.50;99.90;;;;;;5064874;28;20040;-82
2022/07/30 09:08:45;;;;;;;0.20;0.20;;;21.50;99.90;;;;;;5069308;28;20105;-81
2022/07/30 09:11:11;;;;;;;0.20;0.20;;;21.50;99.90;;;;;;5068595;28;20064;-81
2022/07/30 09:13:40;;;;;;;0.20;0.20;;;21.50;99.90;;;;;;5067418;28;20055;-81
2022/07/30 09:16:07;;;;;;;0.13;0.13;;;21.50;99.90;;;;;;5056657;28;20349;-81
2022/07/30 09:18:38;;;;;;;0.20;0.20;;;21.60;99.90;;;;;;5057613;28;20045;-82
2022/07/30 09:21:21;;;;;;;0.20;0.20;;;21.60;99.90;;;;;;5056569;28;20045;-82
2022/07/30 09:24:04;;;;;;;0.20;0.20;;;21.60;99.90;;;;;;5051304;28;20121;-84
2022/07/30 09:26:31;;;;;;;0.10;0.10;;;21.70;99.90;;;;;;5054688;28;20102;-82
2022/07/30 09:29:25;;;;;;;0.20;0.20;;;21.80;99.90;;;;;;5058340;28;20051;-82
2022/07/30 09:31:59;;;;;;;0.20;0.20;;;21.80;99.90;;;;;;5063935;28;20036;-85
2022/07/30 09:34:36;;;;;;;0.20;0.20;;;21.90;99.90;;;;;;5065723;28;20040;-81
2022/07/30 09:37:22;;;;;;;0.20;0.20;;;21.90;99.90;;;;;;5065305;28;20256;-82
2022/07/30 09:39:48;;;;;;;0.20;0.20;;;21.90;99.90;;;;;;5047925;28;20102;-81
2022/07/30 09:42:27;;;;;;;0.20;0.20;;;22.00;99.90;;;;;;5075688;28;20068;-82
2022/07/30 09:45:08;;;;;;;0.20;0.20;;;21.60;99.90;;;;;;5060573;28;20081;-82
2022/07/30 09:47:36;;;;;;;0.20;0.20;;;22.10;99.90;;;;;;5060284;28;20032;-82
2022/07/30 09:50:03;;;;;;;0.20;0.20;;;22.10;99.90;;;;;;5057079;28;20045;-82
2022/07/30 09:52:29;;;;;;;0.20;0.20;;;22.10;99.90;;;;;;5066652;28;20040;-85
2022/07/30 09:54:54;;;;;;;0.20;0.20;;;22.20;99.90;;;;;;5067046;28;20033;-84
2022/07/30 09:57:20;;;;;;;0.20;0.20;;;22.20;99.90;;;;;;5060115;28;20040;-82
2022/07/30 09:59:46;;;;;;;0.20;0.20;;;22.20;99.90;;;;;;5063936;28;20049;-81
2022/07/30 10:02:11;;;;;;;0.20;0.20;;;22.30;99.90;;;;;;5076482;28;20102;-81
2022/07/30 10:04:37;;;;;;;0.20;0.20;;;22.30;99.90;;;;;;5061114;28;20045;-82
2022/07/30 10:07:03;;;;;;;0.20;0.20;;;22.40;99.90;;;;;;5063468;28;20037;-89
2022/07/30 10:09:34;;;;;;;0.20;0.20;;;22.40;99.90;;;;;;5071286;28;20075;-83
2022/07/30 10:12:04;;;;;;;0.20;0.20;;;22.50;99.90;;;;;;5075152;28;20037;-83
2022/07/30 10:14:35;;;;;;;0.20;0.20;;;22.50;99.90;;;;;;5072358;28;20078;-81
2022/07/30 10:17:01;;;;;;;0.20;0.20;;;22.50;99.90;;;;;;5058473;28;20047;-84
2022/07/30 10:19:27;;;;;;;0.20;0.20;;;22.50;99.90;;;;;;5073707;28;20049;-82
2022/07/30 10:21:56;;;;;;;0.20;0.20;;;22.50;99.90;;;;;;5068006;28;20087;-83
2022/07/30 10:24:22;;;;;;;0.20;0.20;;;22.60;99.90;;;;;;5064914;28;20041;-81
2022/07/30 10:26:49;;;;;;;0.20;0.20;;;22.60;99.90;;;;;;5070373;28;20541;-82
2022/07/30 10:29:16;;;;;;;0.20;0.20;;;22.60;99.90;;;;;;5071304;28;20123;-81
2022/07/30 10:31:43;;;;;;;0.20;0.20;;;22.70;99.90;;;;;;5087018;28;20048;-81
2022/07/30 10:34:10;;;;;;;0.20;0.20;;;22.70;99.90;;;;;;5072682;28;20090;-81
2022/07/30 10:36:41;;;;;;;0.17;0.17;;;22.80;99.90;;;;;;5071625;28;20476;-81
2022/07/30 10:39:09;;;;;;;;;;;22.90;99.90;;;;;;5059980;28;20515;-81
2022/07/30 10:42:27;;;;;;;0.20;0.20;;;23.00;99.90;;;;;;5053111;28;19951;-81
2022/07/30 10:45:18;;;;;;;0.20;0.20;;;23.00;99.90;;;;;;5061958;28;20067;-81
2022/07/30 10:47:46;;;;;;;0.20;0.20;;;23.10;99.90;;;;;;5071286;28;20052;-80
2022/07/30 10:50:17;;;;;;;0.20;0.20;;;23.20;99.90;;;;;;5071310;28;20052;-80
2022/07/30 10:52:53;;;;;;;0.20;0.20;;;23.30;99.90;;;;;;5057546;28;20048;-81
2022/07/30 10:55:30;;;;;;;0.20;0.20;;;23.40;99.90;;;;;;5065571;28;20395;-81
2022/07/30 10:58:02;;;;;;;0.30;0.30;;;23.50;99.90;;;;;;5066130;28;20056;-80
2022/07/30 11:00:30;;;;;;;0.20;0.20;;;23.60;99.90;;;;;;5064514;28;20518;-81
2022/07/30 11:03:24;;;;;;;0.20;0.20;;;23.70;99.90;;;;;;5055566;28;20076;-85
2022/07/30 11:05:51;;;;;;;0.20;0.20;;;23.70;99.90;;;;;;5068160;28;20044;-82
2022/07/30 11:08:35;;;;;;;0.20;0.20;;;23.70;99.90;;;;;;5058133;28;20091;-83
2022/07/30 11:11:03;;;;;;;0.20;0.20;;;23.80;99.90;;;;;;5051173;28;20049;-83
2022/07/30 11:13:56;;;;;;;0.28;0.28;;;23.80;99.90;;;;;;5056507;28;20036;-82
2022/07/30 11:16:33;;;;;;;0.68;0.57;;;23.80;99.90;;;;;;5060292;28;20474;-83
2022/07/30 11:19:16;;;;;;;0.20;0.20;;;23.70;99.90;;;;;;5049734;28;20045;-82
2022/07/30 11:21:42;;;;;;;0.20;0.20;;;23.60;99.90;;;;;;5056050;28;20048;-82
2022/07/30 11:24:41;;;;;;;0.20;0.20;;;23.60;99.90;;;;;;5070101;28;20044;-81
2022/07/30 11:27:06;;;;;;;0.10;0.10;;;23.50;99.90;;;;;;5069302;28;20128;-80
2022/07/30 11:29:40;;;;;;;0.20;0.20;;;23.50;99.90;;;;;;5059327;28;20471;-81
2022/07/30 11:32:26;;;;;;;0.20;0.20;;;23.50;99.90;;;;;;5056826;28;20037;-82
2022/07/30 11:35:13;;;;;;;0.30;0.30;;;23.40;99.90;;;;;;5060410;28;20052;-82
2022/07/30 11:37:57;;;;;;;0.20;0.20;;;23.50;99.90;;;;;;5055902;28;20056;-81
2022/07/30 11:40:27;;;;;;;0.20;0.20;;;23.40;99.90;;;;;;5067059;28;20059;-81
2022/07/30 11:43:21;;;;;;;0.20;0.20;;;23.50;99.90;;;;;;5070702;28;20036;-84
2022/07/30 11:45:50;;;;;;;0.20;0.20;;;23.60;99.90;;;;;;5061936;28;20051;-82
2022/07/30 11:48:18;;;;;;;0.20;0.20;;;23.70;99.90;;;;;;5056097;28;20098;-83
2022/07/30 11:50:45;;;;;;;0.20;0.20;;;23.90;99.90;;;;;;5060285;28;20048;-83
2022/07/30 11:53:19;;;;;;;0.20;0.20;;;24.00;99.90;;;;;;5067118;28;20037;-81
2022/07/30 11:55:52;;;;;;;0.20;0.20;;;24.20;99.90;;;;;;5061313;28;20032;-80
2022/07/30 11:58:28;;;;;;;0.17;0.17;;;24.20;99.90;;;;;;5082072;28;20123;-83
2022/07/30 12:00:56;;;;;;;0.20;0.20;;;24.30;99.90;;;;;;5070176;28;20382;-82
2022/07/30 12:03:25;;;;;;;0.20;0.20;;;24.30;99.90;;;;;;5069116;28;20110;-81
2022/07/30 12:05:52;;;;;;;0.20;0.20;;;24.40;99.90;;;;;;5081284;28;20071;-82
2022/07/30 12:08:18;;;;;;;0.20;0.20;;;24.50;99.50;;;;;;5067841;28;20047;-81
2022/07/30 12:10:55;;;;;;;0.20;0.20;;;24.50;98.90;;;;;;5085117;28;20044;-81
2022/07/30 12:13:20;;;;;;;0.20;0.20;;;24.50;98.90;;;;;;5069927;28;20052;-81
2022/07/30 12:15:53;;;;;;;0.20;0.20;;;24.50;99.30;;;;;;5069836;28;20048;-82
2022/07/30 12:18:27;;;;;;;0.20;0.20;;;24.70;99.40;;;;;;5061234;28;20060;-83
2022/07/30 12:21:06;;;;;;;0.28;0.28;;;24.80;99.10;;;;;;5069325;28;20087;-82
2022/07/30 12:23:33;;;;;;;0.20;0.20;;;24.80;98.70;;;;;;5052082;28;20052;-81
2022/07/30 12:25:58;;;;;;;0.20;0.20;;;24.80;98.40;;;;;;5068097;28;20049;-82
2022/07/30 12:28:29;;;;;;;0.20;0.20;;;24.70;98.50;;;;;;5063770;28;20634;-82
2022/07/30 12:30:56;;;;;;;;;;;24.60;98.20;;;;;;5050367;28;20044;-82
2022/07/30 12:33:25;;;;;;;0.20;0.20;;;24.60;98.80;;;;;;5053157;28;19920;-83
2022/07/30 12:35:54;;;;;;;0.20;0.20;;;24.50;98.80;;;;;;5069962;28;20140;-82
2022/07/30 12:38:22;;;;;;;0.20;0.20;;;24.50;99.00;;;;;;5066277;28;20048;-80
2022/07/30 12:40:55;;;;;;;0.20;0.20;;;24.40;99.20;;;;;;5069211;28;20452;-82
2022/07/30 12:43:47;;;;;;;0.20;0.20;;;24.40;99.20;;;;;;5066655;28;20040;-83
2022/07/30 12:46:22;;;;;;;0.20;0.20;;;24.30;99.30;;;;;;5066727;28;20049;-84
2022/07/30 12:49:00;;;;;;;0.20;0.20;;;24.30;99.30;;;;;;5057464;28;20134;-83
2022/07/30 12:51:31;;;;;;;0.20;0.20;;;24.30;99.50;;;;;;5052239;28;20033;-83
2022/07/30 12:53:57;;;;;;;0.20;0.20;;;24.30;99.80;;;;;;5060509;28;20052;-84
2022/07/30 12:56:28;;;;;;;0.20;0.20;;;24.40;99.50;;;;;;5069612;28;20037;-87
2022/07/30 12:59:01;;;;;;;0.20;0.20;;;24.40;99.40;;;;;;5058622;28;20056;-84
2022/07/30 13:01:40;;;;;;;0.20;0.20;;;24.50;99.50;;;;;;5062505;28;20084;-81